Terminal Aerodrome Forecast
Issued by NWS

Home | Current Version | Previous Version | Text Only | Print | Product List | Glossary Off
Versions: 1 2 3 4 5 6 7 8 9 10 11 12 13 14 15

271
FTUS43 KMPX 201741
TAFRWF
TAF
KRWF 201741Z 2018/2118 06011G20KT 3SM -RA BR OVC008
     FM210200 04007KT 3SM -RA BR OVC004
     FM210500 33007KT P6SM VCSH OVC003
     FM211100 29010KT P6SM VCSH OVC008
     FM211600 29014KT P6SM OVC015=

USA.gov is the U.S. government's official web portal to all federal, state and local government web resources and services.